sensor_id;sensor_type;location;lat;lon;timestamp;P1;durP1;ratioP1;P2;durP2;ratioP2
58091;SDS011;43896;48.178;11.578;2023-07-13T04:44:55;4.68;;;1.95;;
58091;SDS011;43896;48.178;11.578;2023-07-13T04:47:21;4.78;;;2.38;;
58091;SDS011;43896;48.178;11.578;2023-07-13T04:49:46;7.13;;;2.40;;
58091;SDS011;43896;48.178;11.578;2023-07-13T04:52:12;4.13;;;2.13;;
58091;SDS011;43896;48.178;11.578;2023-07-13T04:54:37;4.25;;;2.05;;
58091;SDS011;43896;48.178;11.578;2023-07-13T04:57:03;4.28;;;2.10;;
58091;SDS011;43896;48.178;11.578;2023-07-13T04:59:31;5.32;;;2.35;;
58091;SDS011;43896;48.178;11.578;2023-07-13T05:01:57;6.13;;;2.30;;
58091;SDS011;43896;48.178;11.578;2023-07-13T05:04:22;7.18;;;2.20;;
58091;SDS011;43896;48.178;11.578;2023-07-13T05:06:47;5.05;;;2.25;;
58091;SDS011;43896;48.178;11.578;2023-07-13T05:09:12;6.97;;;2.40;;
58091;SDS011;43896;48.178;11.578;2023-07-13T05:11:38;4.72;;;2.35;;
58091;SDS011;43896;48.178;11.578;2023-07-13T05:14:03;4.20;;;2.10;;
58091;SDS011;43896;48.178;11.578;2023-07-13T05:16:29;7.40;;;2.30;;
58091;SDS011;43896;48.178;11.578;2023-07-13T05:18:54;4.70;;;2.30;;
58091;SDS011;43896;48.178;11.578;2023-07-13T05:21:19;5.63;;;2.50;;
58091;SDS011;43896;48.178;11.578;2023-07-13T05:23:45;5.43;;;2.17;;
58091;SDS011;43896;48.178;11.578;2023-07-13T05:26:10;5.28;;;2.50;;
58091;SDS011;43896;48.178;11.578;2023-07-13T05:28:36;4.55;;;2.20;;
58091;SDS011;43896;48.178;11.578;2023-07-13T05:31:02;5.78;;;2.22;;
58091;SDS011;43896;48.178;11.578;2023-07-13T05:33:28;6.70;;;2.50;;
58091;SDS011;43896;48.178;11.578;2023-07-13T05:35:53;4.80;;;2.38;;
58091;SDS011;43896;48.178;11.578;2023-07-13T05:38:19;5.60;;;2.10;;
58091;SDS011;43896;48.178;11.578;2023-07-13T05:40:45;5.57;;;2.20;;
58091;SDS011;43896;48.178;11.578;2023-07-13T05:43:11;4.55;;;2.22;;
58091;SDS011;43896;48.178;11.578;2023-07-13T05:45:36;4.85;;;2.38;;
58091;SDS011;43896;48.178;11.578;2023-07-13T05:48:02;5.65;;;2.30;;
58091;SDS011;43896;48.178;11.578;2023-07-13T05:50:27;7.70;;;2.63;;
58091;SDS011;43896;48.178;11.578;2023-07-13T05:52:53;5.30;;;2.30;;
58091;SDS011;43896;48.178;11.578;2023-07-13T05:55:18;4.72;;;2.10;;
58091;SDS011;43896;48.178;11.578;2023-07-13T05:57:44;5.18;;;2.20;;
58091;SDS011;43896;48.178;11.578;2023-07-13T06:00:10;5.40;;;2.42;;
58091;SDS011;43896;48.178;11.578;2023-07-13T06:02:36;5.00;;;2.33;;
58091;SDS011;43896;48.178;11.578;2023-07-13T06:05:01;7.38;;;2.60;;
58091;SDS011;43896;48.178;11.578;2023-07-13T06:07:26;4.90;;;2.13;;
58091;SDS011;43896;48.178;11.578;2023-07-13T06:09:51;5.25;;;2.25;;
58091;SDS011;43896;48.178;11.578;2023-07-13T06:12:17;5.03;;;2.15;;
58091;SDS011;43896;48.178;11.578;2023-07-13T06:14:42;4.47;;;2.40;;
58091;SDS011;43896;48.178;11.578;2023-07-13T06:17:07;4.28;;;2.20;;
58091;SDS011;43896;48.178;11.578;2023-07-13T06:19:33;5.75;;;2.70;;
58091;SDS011;43896;48.178;11.578;2023-07-13T06:21:59;6.20;;;2.60;;
58091;SDS011;43896;48.178;11.578;2023-07-13T06:24:24;5.05;;;2.40;;
58091;SDS011;43896;48.178;11.578;2023-07-13T06:26:50;4.80;;;2.40;;
58091;SDS011;43896;48.178;11.578;2023-07-13T06:29:15;7.03;;;2.75;;
58091;SDS011;43896;48.178;11.578;2023-07-13T06:31:40;7.65;;;2.50;;
58091;SDS011;43896;48.178;11.578;2023-07-13T06:34:06;5.40;;;2.10;;
58091;SDS011;43896;48.178;11.578;2023-07-13T06:36:31;7.43;;;2.50;;
58091;SDS011;43896;48.178;11.578;2023-07-13T06:38:56;5.60;;;2.38;;
58091;SDS011;43896;48.178;11.578;2023-07-13T06:41:22;5.95;;;2.50;;
58091;SDS011;43896;48.178;11.578;2023-07-13T06:43:47;7.13;;;2.20;;
58091;SDS011;43896;48.178;11.578;2023-07-13T06:46:13;5.25;;;2.10;;
58091;SDS011;43896;48.178;11.578;2023-07-13T06:48:38;4.00;;;1.90;;
58091;SDS011;43896;48.178;11.578;2023-07-13T06:51:03;7.40;;;2.50;;
58091;SDS011;43896;48.178;11.578;2023-07-13T06:53:29;5.63;;;2.33;;
58091;SDS011;43896;48.178;11.578;2023-07-13T06:55:54;5.30;;;2.20;;
58091;SDS011;43896;48.178;11.578;2023-07-13T06:58:19;5.40;;;2.20;;
58091;SDS011;43896;48.178;11.578;2023-07-13T07:00:45;5.65;;;2.38;;
58091;SDS011;43896;48.178;11.578;2023-07-13T07:03:11;6.85;;;2.50;;
58091;SDS011;43896;48.178;11.578;2023-07-13T07:05:36;4.93;;;2.38;;
58091;SDS011;43896;48.178;11.578;2023-07-13T07:08:01;4.95;;;2.20;;
58091;SDS011;43896;48.178;11.578;2023-07-13T07:10:29;6.22;;;2.40;;
58091;SDS011;43896;48.178;11.578;2023-07-13T07:12:55;5.70;;;2.40;;
58091;SDS011;43896;48.178;11.578;2023-07-13T07:15:20;6.63;;;2.50;;
58091;SDS011;43896;48.178;11.578;2023-07-13T07:17:46;5.55;;;2.60;;
58091;SDS011;43896;48.178;11.578;2023-07-13T07:20:11;6.85;;;2.47;;
58091;SDS011;43896;48.178;11.578;2023-07-13T07:22:37;4.32;;;2.08;;
58091;SDS011;43896;48.178;11.578;2023-07-13T07:25:02;5.20;;;2.40;;
58091;SDS011;43896;48.178;11.578;2023-07-13T07:27:28;5.30;;;2.08;;
58091;SDS011;43896;48.178;11.578;2023-07-13T07:29:54;6.97;;;2.20;;
58091;SDS011;43896;48.178;11.578;2023-07-13T07:32:19;6.20;;;1.73;;
58091;SDS011;43896;48.178;11.578;2023-07-13T07:34:45;3.75;;;1.92;;
58091;SDS011;43896;48.178;11.578;2023-07-13T07:37:11;5.72;;;2.17;;
58091;SDS011;43896;48.178;11.578;2023-07-13T07:39:37;5.00;;;1.90;;
58091;SDS011;43896;48.178;11.578;2023-07-13T07:42:03;5.72;;;2.20;;
58091;SDS011;43896;48.178;11.578;2023-07-13T07:44:30;5.53;;;2.00;;
58091;SDS011;43896;48.178;11.578;2023-07-13T07:46:56;4.47;;;1.75;;
58091;SDS011;43896;48.178;11.578;2023-07-13T07:49:21;5.70;;;2.17;;
58091;SDS011;43896;48.178;11.578;2023-07-13T07:51:46;5.18;;;2.05;;
58091;SDS011;43896;48.178;11.578;2023-07-13T07:54:12;5.28;;;1.88;;
58091;SDS011;43896;48.178;11.578;2023-07-13T07:56:38;4.13;;;2.00;;
58091;SDS011;43896;48.178;11.578;2023-07-13T07:59:03;6.53;;;2.30;;
58091;SDS011;43896;48.178;11.578;2023-07-13T08:01:28;4.50;;;2.13;;
58091;SDS011;43896;48.178;11.578;2023-07-13T08:03:54;6.57;;;2.38;;
58091;SDS011;43896;48.178;11.578;2023-07-13T08:06:19;5.72;;;2.00;;
58091;SDS011;43896;48.178;11.578;2023-07-13T08:08:45;4.75;;;2.20;;
58091;SDS011;43896;48.178;11.578;2023-07-13T08:11:10;5.50;;;2.30;;
58091;SDS011;43896;48.178;11.578;2023-07-13T08:13:36;8.57;;;2.30;;
58091;SDS011;43896;48.178;11.578;2023-07-13T08:16:03;7.13;;;2.22;;
58091;SDS011;43896;48.178;11.578;2023-07-13T08:18:29;5.05;;;2.00;;
58091;SDS011;43896;48.178;11.578;2023-07-13T08:20:55;6.22;;;1.90;;
58091;SDS011;43896;48.178;11.578;2023-07-13T08:23:21;9.50;;;2.13;;
58091;SDS011;43896;48.178;11.578;2023-07-13T08:25:54;5.00;;;2.00;;
58091;SDS011;43896;48.178;11.578;2023-07-13T08:28:20;6.43;;;2.40;;
58091;SDS011;43896;48.178;11.578;2023-07-13T08:30:46;6.63;;;2.30;;
58091;SDS011;43896;48.178;11.578;2023-07-13T08:33:14;4.72;;;2.00;;
58091;SDS011;43896;48.178;11.578;2023-07-13T08:35:47;4.80;;;2.13;;
58091;SDS011;43896;48.178;11.578;2023-07-13T08:38:15;6.13;;;2.00;;
58091;SDS011;43896;48.178;11.578;2023-07-13T08:40:41;4.80;;;1.73;;
58091;SDS011;43896;48.178;11.578;2023-07-13T08:43:17;5.05;;;2.00;;
58091;SDS011;43896;48.178;11.578;2023-07-13T08:48:56;6.97;;;1.98;;
58091;SDS011;43896;48.178;11.578;2023-07-13T08:54:14;3.95;;;1.70;;
58091;SDS011;43896;48.178;11.578;2023-07-13T08:56:45;5.57;;;1.83;;
58091;SDS011;43896;48.178;11.578;2023-07-13T08:59:15;5.00;;;1.80;;
58091;SDS011;43896;48.178;11.578;2023-07-13T09:04:44;4.82;;;1.70;;
58091;SDS011;43896;48.178;11.578;2023-07-13T09:10:13;4.55;;;1.92;;
58091;SDS011;43896;48.178;11.578;2023-07-13T09:12:51;4.82;;;1.77;;
58091;SDS011;43896;48.178;11.578;2023-07-13T09:15:22;4.95;;;1.80;;
58091;SDS011;43896;48.178;11.578;2023-07-13T09:17:55;4.65;;;1.70;;
58091;SDS011;43896;48.178;11.578;2023-07-13T09:20:31;3.78;;;1.63;;
58091;SDS011;43896;48.178;11.578;2023-07-13T09:23:01;5.20;;;2.10;;
58091;SDS011;43896;48.178;11.578;2023-07-13T09:25:33;6.63;;;1.60;;
58091;SDS011;43896;48.178;11.578;2023-07-13T09:28:22;4.32;;;1.70;;
58091;SDS011;43896;48.178;11.578;2023-07-13T09:33:39;5.80;;;1.77;;
58091;SDS011;43896;48.178;11.578;2023-07-13T09:36:18;4.40;;;1.50;;
58091;SDS011;43896;48.178;11.578;2023-07-13T09:38:48;4.68;;;1.80;;
58091;SDS011;43896;48.178;11.578;2023-07-13T09:41:33;4.78;;;1.50;;
58091;SDS011;43896;48.178;11.578;2023-07-13T09:44:09;5.72;;;1.80;;
58091;SDS011;43896;48.178;11.578;2023-07-13T09:46:34;2.72;;;1.52;;
58091;SDS011;43896;48.178;11.578;2023-07-13T09:49:00;4.60;;;2.08;;
58091;SDS011;43896;48.178;11.578;2023-07-13T09:51:25;3.75;;;1.63;;
58091;SDS011;43896;48.178;11.578;2023-07-13T09:53:51;3.63;;;1.60;;
58091;SDS011;43896;48.178;11.578;2023-07-13T09:56:28;4.68;;;1.55;;
58091;SDS011;43896;48.178;11.578;2023-07-13T09:58:58;5.53;;;1.73;;
58091;SDS011;43896;48.178;11.578;2023-07-13T10:01:34;5.40;;;1.65;;
58091;SDS011;43896;48.178;11.578;2023-07-13T10:04:02;3.22;;;1.50;;
58091;SDS011;43896;48.178;11.578;2023-07-13T10:06:37;5.05;;;1.70;;
58091;SDS011;43896;48.178;11.578;2023-07-13T10:09:06;7.50;;;1.40;;
58091;SDS011;43896;48.178;11.578;2023-07-13T10:11:34;4.68;;;1.52;;
58091;SDS011;43896;48.178;11.578;2023-07-13T10:14:17;6.53;;;1.55;;
58091;SDS011;43896;48.178;11.578;2023-07-13T10:16:46;6.53;;;1.33;;
58091;SDS011;43896;48.178;11.578;2023-07-13T10:19:24;3.33;;;1.20;;
58091;SDS011;43896;48.178;11.578;2023-07-13T10:21:57;3.78;;;1.52;;
58091;SDS011;43896;48.178;11.578;2023-07-13T10:24:25;4.32;;;1.60;;
58091;SDS011;43896;48.178;11.578;2023-07-13T10:29:42;4.70;;;1.52;;
58091;SDS011;43896;48.178;11.578;2023-07-13T10:32:13;5.43;;;1.50;;
58091;SDS011;43896;48.178;11.578;2023-07-13T10:34:40;5.55;;;1.63;;
58091;SDS011;43896;48.178;11.578;2023-07-13T10:37:14;4.78;;;1.58;;
58091;SDS011;43896;48.178;11.578;2023-07-13T10:39:49;4.60;;;1.50;;
58091;SDS011;43896;48.178;11.578;2023-07-13T10:42:31;3.20;;;1.30;;
58091;SDS011;43896;48.178;11.578;2023-07-13T10:45:02;3.25;;;1.30;;
58091;SDS011;43896;48.178;11.578;2023-07-13T10:47:37;8.60;;;1.50;;
58091;SDS011;43896;48.178;11.578;2023-07-13T10:50:08;4.32;;;1.45;;
58091;SDS011;43896;48.178;11.578;2023-07-13T10:52:52;4.43;;;1.75;;
58091;SDS011;43896;48.178;11.578;2023-07-13T10:58:02;2.80;;;1.30;;
58091;SDS011;43896;48.178;11.578;2023-07-13T11:00:35;3.88;;;1.55;;
58091;SDS011;43896;48.178;11.578;2023-07-13T11:03:10;4.63;;;1.75;;
58091;SDS011;43896;48.178;11.578;2023-07-13T11:05:40;4.07;;;1.30;;
58091;SDS011;43896;48.178;11.578;2023-07-13T11:10:58;2.95;;;1.40;;
58091;SDS011;43896;48.178;11.578;2023-07-13T11:16:12;2.65;;;1.23;;
58091;SDS011;43896;48.178;11.578;2023-07-13T11:21:29;4.80;;;1.50;;
58091;SDS011;43896;48.178;11.578;2023-07-13T11:24:02;4.20;;;1.52;;
58091;SDS011;43896;48.178;11.578;2023-07-13T11:26:38;4.03;;;1.50;;
58091;SDS011;43896;48.178;11.578;2023-07-13T11:29:08;3.88;;;1.50;;
58091;SDS011;43896;48.178;11.578;2023-07-13T11:31:56;3.83;;;1.30;;
58091;SDS011;43896;48.178;11.578;2023-07-13T11:34:27;4.45;;;1.50;;
58091;SDS011;43896;48.178;11.578;2023-07-13T11:36:55;3.33;;;1.50;;
58091;SDS011;43896;48.178;11.578;2023-07-13T11:39:31;3.20;;;1.40;;
58091;SDS011;43896;48.178;11.578;2023-07-13T11:42:01;6.70;;;1.60;;
58091;SDS011;43896;48.178;11.578;2023-07-13T11:44:29;5.13;;;1.70;;
58091;SDS011;43896;48.178;11.578;2023-07-13T11:46:56;7.15;;;1.67;;
58091;SDS011;43896;48.178;11.578;2023-07-13T11:49:29;5.22;;;1.42;;
58091;SDS011;43896;48.178;11.578;2023-07-13T11:51:56;3.83;;;1.50;;
58091;SDS011;43896;48.178;11.578;2023-07-13T11:54:27;5.80;;;1.80;;
58091;SDS011;43896;48.178;11.578;2023-07-13T11:56:59;2.72;;;1.50;;
58091;SDS011;43896;48.178;11.578;2023-07-13T11:59:31;4.05;;;1.52;;
58091;SDS011;43896;48.178;11.578;2023-07-13T12:01:58;3.38;;;1.30;;
58091;SDS011;43896;48.178;11.578;2023-07-13T12:04:31;3.60;;;1.30;;
58091;SDS011;43896;48.178;11.578;2023-07-13T12:07:06;2.97;;;1.40;;
58091;SDS011;43896;48.178;11.578;2023-07-13T12:09:39;3.75;;;1.40;;
58091;SDS011;43896;48.178;11.578;2023-07-13T12:12:14;4.25;;;1.40;;
58091;SDS011;43896;48.178;11.578;2023-07-13T12:14:43;4.83;;;1.40;;
58091;SDS011;43896;48.178;11.578;2023-07-13T12:17:22;3.10;;;1.30;;
58091;SDS011;43896;48.178;11.578;2023-07-13T12:19:52;4.30;;;1.50;;
58091;SDS011;43896;48.178;11.578;2023-07-13T12:22:18;5.00;;;1.63;;
58091;SDS011;43896;48.178;11.578;2023-07-13T12:24:47;6.03;;;1.63;;
58091;SDS011;43896;48.178;11.578;2023-07-13T12:27:23;4.13;;;1.50;;
58091;SDS011;43896;48.178;11.578;2023-07-13T12:29:58;3.63;;;1.48;;
58091;SDS011;43896;48.178;11.578;2023-07-13T12:32:26;3.22;;;1.30;;
58091;SDS011;43896;48.178;11.578;2023-07-13T12:34:53;4.03;;;1.60;;
58091;SDS011;43896;48.178;11.578;2023-07-13T12:37:21;4.57;;;1.40;;
58091;SDS011;43896;48.178;11.578;2023-07-13T12:39:47;4.00;;;1.40;;
58091;SDS011;43896;48.178;11.578;2023-07-13T12:42:21;3.80;;;1.55;;
58091;SDS011;43896;48.178;11.578;2023-07-13T12:44:53;3.58;;;1.60;;
58091;SDS011;43896;48.178;11.578;2023-07-13T12:47:23;3.15;;;1.40;;
58091;SDS011;43896;48.178;11.578;2023-07-13T12:49:50;5.70;;;1.65;;
58091;SDS011;43896;48.178;11.578;2023-07-13T12:52:21;5.00;;;1.70;;
58091;SDS011;43896;48.178;11.578;2023-07-13T12:54:55;5.50;;;1.52;;
58091;SDS011;43896;48.178;11.578;2023-07-13T12:57:22;4.63;;;1.60;;
58091;SDS011;43896;48.178;11.578;2023-07-13T12:59:51;3.35;;;1.27;;
58091;SDS011;43896;48.178;11.578;2023-07-13T13:02:26;3.35;;;1.30;;
58091;SDS011;43896;48.178;11.578;2023-07-13T13:04:55;3.78;;;1.48;;
58091;SDS011;43896;48.178;11.578;2023-07-13T13:07:21;3.55;;;1.75;;
58091;SDS011;43896;48.178;11.578;2023-07-13T13:09:48;3.65;;;1.30;;
58091;SDS011;43896;48.178;11.578;2023-07-13T13:12:14;3.95;;;1.48;;
58091;SDS011;43896;48.178;11.578;2023-07-13T13:14:40;2.55;;;1.30;;
58091;SDS011;43896;48.178;11.578;2023-07-13T13:17:11;3.40;;;1.50;;
58091;SDS011;43896;48.178;11.578;2023-07-13T13:19:44;4.43;;;1.27;;
58091;SDS011;43896;48.178;11.578;2023-07-13T13:22:10;4.70;;;1.50;;
58091;SDS011;43896;48.178;11.578;2023-07-13T13:24:36;2.60;;;1.27;;
58091;SDS011;43896;48.178;11.578;2023-07-13T13:27:04;3.35;;;1.40;;
58091;SDS011;43896;48.178;11.578;2023-07-13T13:29:31;4.63;;;1.45;;
58091;SDS011;43896;48.178;11.578;2023-07-13T13:31:58;3.15;;;1.45;;
58091;SDS011;43896;48.178;11.578;2023-07-13T13:34:24;2.88;;;1.27;;
58091;SDS011;43896;48.178;11.578;2023-07-13T13:36:50;4.57;;;1.50;;
58091;SDS011;43896;48.178;11.578;2023-07-13T13:39:35;3.10;;;1.20;;
58091;SDS011;43896;48.178;11.578;2023-07-13T13:42:01;3.28;;;1.40;;
58091;SDS011;43896;48.178;11.578;2023-07-13T13:44:46;2.70;;;1.25;;
58091;SDS011;43896;48.178;11.578;2023-07-13T13:50:17;3.03;;;1.40;;
58091;SDS011;43896;48.178;11.578;2023-07-13T13:52:47;3.83;;;1.63;;
58091;SDS011;43896;48.178;11.578;2023-07-13T13:55:16;2.55;;;1.27;;
58091;SDS011;43896;48.178;11.578;2023-07-13T13:57:44;4.20;;;1.27;;
58091;SDS011;43896;48.178;11.578;2023-07-13T14:00:10;4.90;;;1.50;;
58091;SDS011;43896;48.178;11.578;2023-07-13T14:02:39;4.73;;;1.37;;
58091;SDS011;43896;48.178;11.578;2023-07-13T14:05:09;3.38;;;1.38;;
58091;SDS011;43896;48.178;11.578;2023-07-13T14:07:37;2.97;;;1.30;;
58091;SDS011;43896;48.178;11.578;2023-07-13T14:10:08;3.00;;;1.20;;
58091;SDS011;43896;48.178;11.578;2023-07-13T14:12:37;4.13;;;1.40;;
58091;SDS011;43896;48.178;11.578;2023-07-13T14:15:03;4.47;;;1.40;;
58091;SDS011;43896;48.178;11.578;2023-07-13T14:17:30;3.40;;;1.30;;
58091;SDS011;43896;48.178;11.578;2023-07-13T14:19:56;3.75;;;1.30;;
58091;SDS011;43896;48.178;11.578;2023-07-13T14:22:25;3.80;;;1.42;;
58091;SDS011;43896;48.178;11.578;2023-07-13T14:24:51;2.90;;;1.40;;
58091;SDS011;43896;48.178;11.578;2023-07-13T14:27:20;3.30;;;1.45;;
58091;SDS011;43896;48.178;11.578;2023-07-13T14:29:47;5.03;;;1.35;;
58091;SDS011;43896;48.178;11.578;2023-07-13T14:32:12;3.53;;;1.40;;
58091;SDS011;43896;48.178;11.578;2023-07-13T14:34:39;3.25;;;1.38;;
58091;SDS011;43896;48.178;11.578;2023-07-13T14:37:11;3.08;;;1.50;;
58091;SDS011;43896;48.178;11.578;2023-07-13T14:39:39;3.72;;;1.40;;
58091;SDS011;43896;48.178;11.578;2023-07-13T14:42:05;3.72;;;1.40;;
58091;SDS011;43896;48.178;11.578;2023-07-13T14:44:33;5.75;;;1.50;;
58091;SDS011;43896;48.178;11.578;2023-07-13T14:46:59;3.28;;;1.55;;
58091;SDS011;43896;48.178;11.578;2023-07-13T14:49:39;3.45;;;1.48;;
58091;SDS011;43896;48.178;11.578;2023-07-13T14:52:19;3.80;;;1.50;;
58091;SDS011;43896;48.178;11.578;2023-07-13T14:54:46;5.22;;;1.45;;
58091;SDS011;43896;48.178;11.578;2023-07-13T14:57:13;4.60;;;1.38;;
58091;SDS011;43896;48.178;11.578;2023-07-13T14:59:40;2.38;;;1.30;;
58091;SDS011;43896;48.178;11.578;2023-07-13T15:02:25;3.63;;;1.50;;
58091;SDS011;43896;48.178;11.578;2023-07-13T15:04:54;6.95;;;1.80;;
58091;SDS011;43896;48.178;11.578;2023-07-13T15:07:20;10.60;;;1.88;;
58091;SDS011;43896;48.178;11.578;2023-07-13T15:09:46;5.78;;;1.50;;
58091;SDS011;43896;48.178;11.578;2023-07-13T15:12:12;5.15;;;1.60;;
58091;SDS011;43896;48.178;11.578;2023-07-13T15:14:38;6.53;;;1.50;;
58091;SDS011;43896;48.178;11.578;2023-07-13T15:17:03;3.75;;;1.30;;
58091;SDS011;43896;48.178;11.578;2023-07-13T15:19:29;3.25;;;1.30;;
58091;SDS011;43896;48.178;11.578;2023-07-13T15:21:57;4.13;;;1.30;;
58091;SDS011;43896;48.178;11.578;2023-07-13T15:24:22;5.22;;;1.67;;
58091;SDS011;43896;48.178;11.578;2023-07-13T15:26:48;2.80;;;1.30;;
58091;SDS011;43896;48.178;11.578;2023-07-13T15:29:18;3.15;;;1.33;;
58091;SDS011;43896;48.178;11.578;2023-07-13T15:31:43;3.40;;;1.40;;
58091;SDS011;43896;48.178;11.578;2023-07-13T15:34:13;3.33;;;1.30;;
58091;SDS011;43896;48.178;11.578;2023-07-13T15:36:41;2.85;;;1.35;;
58091;SDS011;43896;48.178;11.578;2023-07-13T15:39:06;4.10;;;1.60;;
58091;SDS011;43896;48.178;11.578;2023-07-13T15:41:37;5.28;;;1.50;;
58091;SDS011;43896;48.178;11.578;2023-07-13T15:44:12;4.25;;;1.45;;
58091;SDS011;43896;48.178;11.578;2023-07-13T15:46:48;5.20;;;1.40;;
58091;SDS011;43896;48.178;11.578;2023-07-13T15:49:15;3.22;;;1.40;;
58091;SDS011;43896;48.178;11.578;2023-07-13T15:51:40;2.83;;;1.30;;
58091;SDS011;43896;48.178;11.578;2023-07-13T15:54:08;4.47;;;1.40;;
58091;SDS011;43896;48.178;11.578;2023-07-13T15:56:38;3.97;;;1.45;;
58091;SDS011;43896;48.178;11.578;2023-07-13T15:59:07;3.65;;;1.50;;
58091;SDS011;43896;48.178;11.578;2023-07-13T16:01:36;3.13;;;1.33;;
58091;SDS011;43896;48.178;11.578;2023-07-13T16:04:01;4.72;;;1.48;;
58091;SDS011;43896;48.178;11.578;2023-07-13T16:06:30;4.28;;;1.58;;
58091;SDS011;43896;48.178;11.578;2023-07-13T16:09:00;5.28;;;1.50;;
58091;SDS011;43896;48.178;11.578;2023-07-13T16:11:27;3.20;;;1.40;;
58091;SDS011;43896;48.178;11.578;2023-07-13T16:13:57;5.00;;;1.50;;
58091;SDS011;43896;48.178;11.578;2023-07-13T16:16:26;3.30;;;1.30;;
58091;SDS011;43896;48.178;11.578;2023-07-13T16:18:55;3.63;;;1.35;;
58091;SDS011;43896;48.178;11.578;2023-07-13T16:21:26;2.83;;;1.40;;
58091;SDS011;43896;48.178;11.578;2023-07-13T16:23:53;2.83;;;1.15;;
58091;SDS011;43896;48.178;11.578;2023-07-13T16:26:29;4.15;;;1.60;;
58091;SDS011;43896;48.178;11.578;2023-07-13T16:29:22;4.10;;;1.52;;
58091;SDS011;43896;48.178;11.578;2023-07-13T16:34:22;3.28;;;1.50;;
58091;SDS011;43896;48.178;11.578;2023-07-13T16:36:48;4.55;;;1.60;;
58091;SDS011;43896;48.178;11.578;2023-07-13T16:39:14;3.38;;;1.40;;
58091;SDS011;43896;48.178;11.578;2023-07-13T16:41:42;4.35;;;1.50;;
58091;SDS011;43896;48.178;11.578;2023-07-13T16:44:11;3.75;;;1.60;;
58091;SDS011;43896;48.178;11.578;2023-07-13T16:46:38;3.63;;;1.42;;
58091;SDS011;43896;48.178;11.578;2023-07-13T16:49:09;6.20;;;1.50;;
58091;SDS011;43896;48.178;11.578;2023-07-13T16:51:44;3.17;;;1.38;;
58091;SDS011;43896;48.178;11.578;2023-07-13T16:54:10;4.63;;;1.60;;
58091;SDS011;43896;48.178;11.578;2023-07-13T16:56:35;3.47;;;1.48;;
58091;SDS011;43896;48.178;11.578;2023-07-13T16:59:01;3.63;;;1.40;;
58091;SDS011;43896;48.178;11.578;2023-07-13T17:01:26;4.40;;;1.55;;
58091;SDS011;43896;48.178;11.578;2023-07-13T17:03:52;4.25;;;1.52;;
58091;SDS011;43896;48.178;11.578;2023-07-13T17:06:25;6.85;;;1.52;;
58091;SDS011;43896;48.178;11.578;2023-07-13T17:08:52;3.30;;;1.50;;
58091;SDS011;43896;48.178;11.578;2023-07-13T17:11:19;3.90;;;1.65;;
58091;SDS011;43896;48.178;11.578;2023-07-13T17:13:44;5.18;;;1.67;;
58091;SDS011;43896;48.178;11.578;2023-07-13T17:16:11;3.53;;;1.50;;
58091;SDS011;43896;48.178;11.578;2023-07-13T17:18:36;4.00;;;1.50;;
58091;SDS011;43896;48.178;11.578;2023-07-13T17:21:06;4.25;;;1.70;;
58091;SDS011;43896;48.178;11.578;2023-07-13T17:23:34;4.93;;;1.60;;
58091;SDS011;43896;48.178;11.578;2023-07-13T17:25:59;5.10;;;1.60;;
58091;SDS011;43896;48.178;11.578;2023-07-13T17:28:25;5.40;;;1.73;;
58091;SDS011;43896;48.178;11.578;2023-07-13T17:30:54;3.90;;;1.67;;
58091;SDS011;43896;48.178;11.578;2023-07-13T17:33:29;2.90;;;1.40;;
58091;SDS011;43896;48.178;11.578;2023-07-13T17:36:05;5.43;;;2.05;;
58091;SDS011;43896;48.178;11.578;2023-07-13T17:38:37;4.13;;;1.45;;
58091;SDS011;43896;48.178;11.578;2023-07-13T17:41:09;4.35;;;1.63;;
58091;SDS011;43896;48.178;11.578;2023-07-13T17:43:39;3.95;;;1.63;;
58091;SDS011;43896;48.178;11.578;2023-07-13T17:49:04;2.85;;;1.60;;
58091;SDS011;43896;48.178;11.578;2023-07-13T17:51:31;3.75;;;1.80;;
58091;SDS011;43896;48.178;11.578;2023-07-13T17:53:57;4.30;;;1.60;;
58091;SDS011;43896;48.178;11.578;2023-07-13T17:56:23;4.25;;;1.70;;
58091;SDS011;43896;48.178;11.578;2023-07-13T17:58:49;5.40;;;1.83;;
58091;SDS011;43896;48.178;11.578;2023-07-13T18:01:17;4.85;;;1.80;;
58091;SDS011;43896;48.178;11.578;2023-07-13T18:03:47;2.97;;;1.50;;
58091;SDS011;43896;48.178;11.578;2023-07-13T18:06:20;3.88;;;1.50;;
58091;SDS011;43896;48.178;11.578;2023-07-13T18:08:53;2.55;;;1.40;;
58091;SDS011;43896;48.178;11.578;2023-07-13T18:11:20;4.35;;;1.63;;
58091;SDS011;43896;48.178;11.578;2023-07-13T18:13:46;4.85;;;1.80;;
58091;SDS011;43896;48.178;11.578;2023-07-13T18:16:13;3.88;;;1.70;;
58091;SDS011;43896;48.178;11.578;2023-07-13T18:18:40;4.18;;;1.90;;
58091;SDS011;43896;48.178;11.578;2023-07-13T18:21:07;4.03;;;1.90;;
58091;SDS011;43896;48.178;11.578;2023-07-13T18:23:35;6.63;;;1.90;;
58091;SDS011;43896;48.178;11.578;2023-07-13T18:26:00;3.67;;;1.60;;
58091;SDS011;43896;48.178;11.578;2023-07-13T18:28:26;5.47;;;1.83;;
58091;SDS011;43896;48.178;11.578;2023-07-13T18:30:56;2.95;;;1.50;;
58091;SDS011;43896;48.178;11.578;2023-07-13T18:33:40;2.75;;;1.52;;
58091;SDS011;43896;48.178;11.578;2023-07-13T18:36:12;3.92;;;1.60;;
58091;SDS011;43896;48.178;11.578;2023-07-13T18:38:40;5.57;;;2.17;;
58091;SDS011;43896;48.178;11.578;2023-07-13T18:41:08;4.10;;;1.65;;
58091;SDS011;43896;48.178;11.578;2023-07-13T18:43:35;5.47;;;2.00;;
58091;SDS011;43896;48.178;11.578;2023-07-13T18:46:01;5.15;;;1.90;;
58091;SDS011;43896;48.178;11.578;2023-07-13T18:48:33;7.60;;;2.00;;
58091;SDS011;43896;48.178;11.578;2023-07-13T18:50:59;5.20;;;1.90;;
58091;SDS011;43896;48.178;11.578;2023-07-13T18:53:25;4.90;;;1.80;;
58091;SDS011;43896;48.178;11.578;2023-07-13T18:55:53;3.92;;;1.80;;
58091;SDS011;43896;48.178;11.578;2023-07-13T18:58:19;3.63;;;1.70;;
58091;SDS011;43896;48.178;11.578;2023-07-13T19:00:46;4.43;;;1.90;;
58091;SDS011;43896;48.178;11.578;2023-07-13T19:03:22;4.40;;;1.67;;
58091;SDS011;43896;48.178;11.578;2023-07-13T19:08:18;4.00;;;1.65;;
58091;SDS011;43896;48.178;11.578;2023-07-13T19:10:47;5.03;;;1.88;;
58091;SDS011;43896;48.178;11.578;2023-07-13T19:13:16;5.03;;;2.10;;
58091;SDS011;43896;48.178;11.578;2023-07-13T19:15:48;4.45;;;2.00;;
58091;SDS011;43896;48.178;11.578;2023-07-13T19:18:15;4.45;;;2.10;;
58091;SDS011;43896;48.178;11.578;2023-07-13T19:20:44;5.35;;;2.10;;
58091;SDS011;43896;48.178;11.578;2023-07-13T19:26:01;4.47;;;2.42;;
58091;SDS011;43896;48.178;11.578;2023-07-13T19:28:32;6.00;;;2.30;;
58091;SDS011;43896;48.178;11.578;2023-07-13T19:31:02;6.75;;;2.50;;
58091;SDS011;43896;48.178;11.578;2023-07-13T19:33:28;5.13;;;2.17;;
58091;SDS011;43896;48.178;11.578;2023-07-13T19:35:54;5.13;;;2.40;;
58091;SDS011;43896;48.178;11.578;2023-07-13T19:38:21;6.63;;;2.53;;
58091;SDS011;43896;48.178;11.578;2023-07-13T19:40:49;4.40;;;2.10;;
58091;SDS011;43896;48.178;11.578;2023-07-13T19:43:15;4.88;;;2.30;;
58091;SDS011;43896;48.178;11.578;2023-07-13T19:45:40;7.00;;;2.35;;
58091;SDS011;43896;48.178;11.578;2023-07-13T19:48:06;5.85;;;2.33;;
58091;SDS011;43896;48.178;11.578;2023-07-13T19:50:34;6.40;;;2.90;;
58091;SDS011;43896;48.178;11.578;2023-07-13T19:53:02;6.22;;;2.80;;
58091;SDS011;43896;48.178;11.578;2023-07-13T19:55:28;6.70;;;3.20;;
58091;SDS011;43896;48.178;11.578;2023-07-13T19:57:54;7.30;;;3.50;;
58091;SDS011;43896;48.178;11.578;2023-07-13T20:00:22;7.25;;;3.22;;
58091;SDS011;43896;48.178;11.578;2023-07-13T20:02:50;7.20;;;2.72;;
58091;SDS011;43896;48.178;11.578;2023-07-13T20:05:18;5.18;;;2.78;;
58091;SDS011;43896;48.178;11.578;2023-07-13T20:07:45;4.82;;;2.70;;